createdAt,value
2023-03-24T00:02:00.090Z,12.10
2023-03-24T00:04:29.733Z,12.00
2023-03-24T00:06:57.982Z,12.00
2023-03-24T00:09:26.199Z,12.10
2023-03-24T00:11:54.350Z,12.10
2023-03-24T00:14:23.426Z,12.10
2023-03-24T00:16:54.767Z,12.10
2023-03-24T00:19:22.897Z,12.10
2023-03-24T00:21:51.081Z,12.10
2023-03-24T00:24:20.169Z,12.10
2023-03-24T00:26:48.721Z,12.00
2023-03-24T00:29:16.919Z,12.00
2023-03-24T00:31:45.097Z,12.00
2023-03-24T00:34:14.738Z,12.20
2023-03-24T00:36:42.995Z,12.10
2023-03-24T00:39:11.255Z,12.10
2023-03-24T00:41:39.351Z,12.10
2023-03-24T00:44:07.592Z,12.10
2023-03-24T00:46:37.567Z,12.10
2023-03-24T00:49:07.671Z,12.10
2023-03-24T00:51:39.283Z,12.10
2023-03-24T00:54:09.336Z,12.20
2023-03-24T00:56:40.464Z,12.10
2023-03-24T00:59:10.277Z,12.10
2023-03-24T01:01:41.132Z,12.00
2023-03-24T01:04:10.406Z,12.10
2023-03-24T01:06:41.127Z,12.10
2023-03-24T01:09:10.591Z,12.10
2023-03-24T01:11:42.243Z,12.10
2023-03-24T01:14:11.369Z,12.20
2023-03-24T01:16:39.598Z,12.10
2023-03-24T01:19:09.102Z,12.00
2023-03-24T01:21:39.514Z,12.00
2023-03-24T01:24:08.313Z,12.00
2023-03-24T01:26:36.660Z,12.10
2023-03-24T01:29:05.046Z,12.20
2023-03-24T01:31:33.235Z,12.20
2023-03-24T01:34:01.411Z,12.20
2023-03-24T01:36:29.573Z,12.20
2023-03-24T01:39:01.206Z,12.20
2023-03-24T01:41:32.965Z,12.20
2023-03-24T01:44:01.492Z,12.20
2023-03-24T01:46:33.355Z,12.10
2023-03-24T01:49:05.937Z,12.20
2023-03-24T01:51:38.828Z,12.30
2023-03-24T01:54:12.048Z,12.40
2023-03-24T01:56:43.909Z,12.50
2023-03-24T01:59:14.188Z,12.40
2023-03-24T02:01:42.774Z,12.50
2023-03-24T02:04:12.144Z,12.50
2023-03-24T02:06:44.426Z,12.50
2023-03-24T02:09:15.580Z,12.50
2023-03-24T02:11:44.868Z,12.50
2023-03-24T02:14:13.956Z,12.40
2023-03-24T02:16:58.180Z,12.50
2023-03-24T02:19:54.665Z,12.50
2023-03-24T02:23:04.552Z,12.50
2023-03-24T02:26:19.153Z,12.50
2023-03-24T02:28:57.819Z,12.50
2023-03-24T02:32:06.598Z,12.40
2023-03-24T02:35:11.710Z,12.40
2023-03-24T02:38:12.980Z,12.40
2023-03-24T02:40:46.625Z,12.40
2023-03-24T02:43:24.513Z,12.30
2023-03-24T02:46:07.041Z,12.30
2023-03-24T02:48:42.909Z,12.30
2023-03-24T02:51:15.920Z,12.20
2023-03-24T02:53:53.150Z,12.10
2023-03-24T02:56:30.147Z,12.10
2023-03-24T02:59:03.306Z,12.20
2023-03-24T03:01:35.855Z,12.20
2023-03-24T03:04:10.115Z,12.20
2023-03-24T03:06:40.860Z,12.40
2023-03-24T03:09:12.828Z,12.40
2023-03-24T03:11:45.774Z,12.60
2023-03-24T03:14:19.154Z,12.70
2023-03-24T03:16:53.482Z,12.80
2023-03-24T03:19:25.831Z,12.90
2023-03-24T03:21:55.894Z,12.80
2023-03-24T03:24:28.140Z,13.00
2023-03-24T03:27:03.343Z,13.00
2023-03-24T03:29:36.625Z,13.00
2023-03-24T03:32:08.571Z,13.00
2023-03-24T03:34:42.076Z,13.00
2023-03-24T03:37:19.505Z,13.10
2023-03-24T03:39:53.705Z,13.20
2023-03-24T03:42:23.573Z,13.20
2023-03-24T03:44:51.878Z,13.20
2023-03-24T03:47:21.366Z,13.20
2023-03-24T03:49:49.854Z,13.20
2023-03-24T03:52:18.393Z,13.20
2023-03-24T03:54:46.843Z,13.30
2023-03-24T03:57:15.882Z,13.30
2023-03-24T03:59:45.368Z,13.40
2023-03-24T04:02:31.113Z,13.40
2023-03-24T04:05:27.575Z,13.40
2023-03-24T04:08:09.700Z,13.50
2023-03-24T04:10:53.756Z,13.60
2023-03-24T04:13:29.135Z,13.60
2023-03-24T04:16:05.122Z,13.60
2023-03-24T04:18:44.373Z,13.70
2023-03-24T04:21:28.339Z,13.70
2023-03-24T04:24:06.750Z,13.70
2023-03-24T04:26:42.758Z,13.70
2023-03-24T04:29:17.921Z,13.80
2023-03-24T04:31:53.382Z,13.80
2023-03-24T04:34:26.012Z,13.80
2023-03-24T04:37:02.766Z,13.80
2023-03-24T04:39:33.105Z,13.80
2023-03-24T04:42:04.291Z,13.80
2023-03-24T04:44:34.011Z,13.80
2023-03-24T04:47:04.606Z,13.80
2023-03-24T04:49:32.697Z,13.80
2023-03-24T04:52:00.973Z,13.80
2023-03-24T04:54:29.821Z,13.80
2023-03-24T04:57:01.557Z,13.70
2023-03-24T04:59:29.637Z,13.80
2023-03-24T05:01:57.777Z,13.70
2023-03-24T05:04:29.788Z,13.70
2023-03-24T05:06:58.111Z,13.70
2023-03-24T05:09:27.162Z,13.60
2023-03-24T05:11:55.204Z,13.50
2023-03-24T05:14:23.342Z,13.60
2023-03-24T05:16:51.564Z,13.60
2023-03-24T05:19:19.585Z,13.60
2023-03-24T05:21:49.012Z,13.80
2023-03-24T05:24:17.004Z,13.50
2023-03-24T05:26:44.938Z,13.60
2023-03-24T05:29:12.890Z,13.60
2023-03-24T05:31:40.900Z,13.50
2023-03-24T05:34:08.964Z,13.50
2023-03-24T05:36:38.002Z,13.60
2023-03-24T05:39:08.074Z,13.40
2023-03-24T05:41:36.260Z,13.30
2023-03-24T05:44:04.410Z,13.30
2023-03-24T05:46:32.481Z,13.30
2023-03-24T05:49:00.618Z,13.30
2023-03-24T05:51:28.671Z,13.30
2023-03-24T05:53:57.229Z,13.20
2023-03-24T05:56:27.962Z,13.10
2023-03-24T05:58:55.935Z,13.00
2023-03-24T06:01:25.385Z,12.90
2023-03-24T06:03:53.544Z,12.90
2023-03-24T06:06:22.352Z,12.70
2023-03-24T06:08:50.337Z,12.50
2023-03-24T06:11:18.393Z,12.30
2023-03-24T06:13:47.789Z,12.20
2023-03-24T06:16:19.053Z,11.80
2023-03-24T06:18:53.100Z,11.60
2023-03-24T06:21:21.727Z,11.60
2023-03-24T06:23:49.782Z,11.50
2023-03-24T06:26:19.248Z,11.50
2023-03-24T06:28:52.030Z,11.50
2023-03-24T06:31:21.527Z,11.50
2023-03-24T06:33:50.102Z,11.40
2023-03-24T06:36:18.318Z,11.40
2023-03-24T06:38:47.077Z,11.40
2023-03-24T06:41:15.079Z,11.50
2023-03-24T06:43:43.285Z,11.60
2023-03-24T06:46:12.827Z,11.80
2023-03-24T06:48:41.321Z,11.90
2023-03-24T06:51:09.706Z,12.10
2023-03-24T06:53:41.293Z,12.10
2023-03-24T06:56:09.610Z,12.20
2023-03-24T06:58:38.321Z,12.30
2023-03-24T07:01:07.279Z,12.40
2023-03-24T07:03:39.861Z,12.50
2023-03-24T07:06:08.224Z,12.60
2023-03-24T07:08:38.644Z,12.60
2023-03-24T07:11:08.855Z,12.80
2023-03-24T07:13:37.403Z,13.00
2023-03-24T07:16:05.918Z,13.10
2023-03-24T07:18:34.068Z,13.30
2023-03-24T07:21:03.820Z,13.40
2023-03-24T07:23:32.603Z,13.40
2023-03-24T07:26:01.888Z,13.30
2023-03-24T07:28:30.077Z,13.20
2023-03-24T07:30:59.529Z,13.10
2023-03-24T07:33:27.774Z,12.90
2023-03-24T07:35:57.437Z,12.80
2023-03-24T07:38:27.878Z,12.80
2023-03-24T07:40:55.978Z,12.70
2023-03-24T07:43:24.448Z,12.70
2023-03-24T07:45:52.928Z,12.60
2023-03-24T07:48:21.414Z,12.70
2023-03-24T07:50:50.271Z,12.80
2023-03-24T07:53:20.933Z,12.80
2023-03-24T07:55:50.790Z,13.10
2023-03-24T07:58:19.237Z,13.30
2023-03-24T08:00:48.000Z,13.50
2023-03-24T08:03:16.510Z,13.80
2023-03-24T08:05:46.405Z,14.10
2023-03-24T08:08:16.587Z,14.30
2023-03-24T08:10:46.017Z,14.20
2023-03-24T08:13:15.995Z,14.10
2023-03-24T08:15:45.888Z,14.00
2023-03-24T08:18:14.284Z,13.80
2023-03-24T08:20:43.414Z,13.80
2023-03-24T08:23:12.419Z,13.70
2023-03-24T08:25:41.145Z,13.60
2023-03-24T08:28:09.377Z,13.70
2023-03-24T08:30:43.592Z,14.20
2023-03-24T08:33:13.235Z,14.40
2023-03-24T08:35:41.902Z,14.80
2023-03-24T08:38:12.073Z,15.00
2023-03-24T08:40:42.449Z,15.00
2023-03-24T08:43:15.367Z,14.90
2023-03-24T08:45:45.274Z,14.80
2023-03-24T08:48:13.913Z,14.90
2023-03-24T08:50:43.248Z,15.50
2023-03-24T08:53:12.810Z,15.70
2023-03-24T08:55:43.185Z,15.50
2023-03-24T08:58:15.565Z,15.60
2023-03-24T09:00:46.176Z,15.60
2023-03-24T09:03:18.353Z,15.40
2023-03-24T09:05:48.004Z,15.40
2023-03-24T09:08:19.655Z,15.10
2023-03-24T09:10:49.511Z,14.90
2023-03-24T09:13:18.562Z,15.30
2023-03-24T09:15:52.875Z,16.50
2023-03-24T09:18:22.810Z,18.30
2023-03-24T09:20:52.366Z,19.80
2023-03-24T09:23:20.990Z,20.40
2023-03-24T09:25:51.276Z,20.50
2023-03-24T09:28:19.583Z,21.20
2023-03-24T09:30:48.247Z,22.20
2023-03-24T09:33:18.493Z,22.60
2023-03-24T09:35:55.694Z,22.80
2023-03-24T09:38:26.326Z,21.80
2023-03-24T09:44:34.248Z,21.10
2023-03-24T09:47:05.178Z,21.10
2023-03-24T09:49:39.515Z,21.00
2023-03-24T09:52:10.603Z,20.10
2023-03-24T09:54:46.136Z,19.40
2023-03-24T09:57:21.784Z,19.00
2023-03-24T09:59:49.913Z,19.00
2023-03-24T10:02:20.557Z,18.60
2023-03-24T10:04:51.247Z,18.10
2023-03-24T10:07:25.672Z,18.10
2023-03-24T10:09:59.201Z,18.70
2023-03-24T10:12:36.453Z,19.50
2023-03-24T10:15:15.074Z,19.00
2023-03-24T10:17:56.254Z,18.80
2023-03-24T10:20:32.956Z,18.90
2023-03-24T10:23:05.309Z,19.10
2023-03-24T10:25:52.527Z,19.90
2023-03-24T10:28:21.852Z,21.50
2023-03-24T10:30:52.715Z,22.70
2023-03-24T10:33:20.948Z,22.80
2023-03-24T10:35:58.193Z,23.70
2023-03-24T10:38:26.258Z,24.90
2023-03-24T10:40:56.318Z,25.60
2023-03-24T10:43:26.956Z,25.70
2023-03-24T10:45:57.729Z,24.80
2023-03-24T10:48:44.437Z,24.70
2023-03-24T10:51:21.566Z,24.10
2023-03-24T10:53:50.682Z,23.70
2023-03-24T10:56:21.001Z,23.70
2023-03-24T10:58:50.099Z,23.60
2023-03-24T11:01:26.362Z,23.10
2023-03-24T11:03:59.862Z,22.00
2023-03-24T11:06:29.260Z,20.80
2023-03-24T11:09:21.267Z,20.60
2023-03-24T11:11:52.601Z,20.50
2023-03-24T11:14:25.511Z,19.90
2023-03-24T11:16:55.218Z,19.00
2023-03-24T11:19:24.668Z,18.70
2023-03-24T11:22:03.316Z,19.00
2023-03-24T11:24:31.781Z,19.10
2023-03-24T11:27:02.246Z,18.90
2023-03-24T11:29:33.378Z,18.40
2023-03-24T11:32:05.498Z,17.90
2023-03-24T11:34:38.896Z,17.70
2023-03-24T11:37:13.227Z,17.10
2023-03-24T11:39:41.590Z,16.80
2023-03-24T11:42:17.044Z,16.40
2023-03-24T11:44:49.218Z,16.00
2023-03-24T11:47:25.706Z,15.60
2023-03-24T11:50:15.541Z,15.40
2023-03-24T11:52:50.762Z,15.40
2023-03-24T11:55:22.687Z,15.40
2023-03-24T11:57:56.516Z,15.40
2023-03-24T12:00:33.491Z,15.30
2023-03-24T12:03:26.695Z,15.20
2023-03-24T12:06:00.125Z,15.40
2023-03-24T12:08:41.849Z,15.60
2023-03-24T12:11:19.230Z,15.50
2023-03-24T12:13:50.112Z,15.50
2023-03-24T12:16:44.759Z,15.30
2023-03-24T12:19:33.661Z,15.30
2023-03-24T12:22:12.500Z,15.30
2023-03-24T12:25:05.684Z,15.90
2023-03-24T12:27:44.244Z,16.20
2023-03-24T12:30:21.167Z,16.40
2023-03-24T12:32:56.378Z,16.30
2023-03-24T12:35:44.271Z,16.40
2023-03-24T12:38:26.804Z,16.50
2023-03-24T12:41:16.164Z,16.70
2023-03-24T12:43:54.906Z,17.00
2023-03-24T12:46:46.567Z,16.70
2023-03-24T12:49:34.859Z,16.40
2023-03-24T12:52:19.446Z,16.50
2023-03-24T12:54:55.818Z,16.30
2023-03-24T12:57:32.830Z,16.30
2023-03-24T13:00:08.679Z,16.50
2023-03-24T13:02:39.420Z,16.80
2023-03-24T13:05:10.269Z,16.80
2023-03-24T13:07:39.518Z,16.60
2023-03-24T13:10:15.043Z,16.60
2023-03-24T13:12:47.613Z,16.90
2023-03-24T13:15:20.785Z,17.20
2023-03-24T13:17:52.367Z,17.90
2023-03-24T13:20:26.410Z,18.50
2023-03-24T13:22:55.542Z,18.50
2023-03-24T13:25:32.795Z,18.10
2023-03-24T13:28:09.513Z,18.30
2023-03-24T13:30:40.418Z,18.30
2023-03-24T13:33:15.507Z,18.30
2023-03-24T13:36:06.228Z,18.10
2023-03-24T13:38:39.199Z,18.20
2023-03-24T13:41:08.750Z,18.30
2023-03-24T13:43:38.217Z,18.10
2023-03-24T13:46:10.751Z,18.00
2023-03-24T13:48:41.875Z,17.60
2023-03-24T13:51:19.143Z,17.50
2023-03-24T13:53:52.632Z,17.50
2023-03-24T13:56:28.505Z,17.30
2023-03-24T13:59:27.209Z,17.10
2023-03-24T14:02:46.945Z,17.20
2023-03-24T14:05:34.446Z,17.50
2023-03-24T14:08:17.656Z,17.80
2023-03-24T14:10:48.449Z,18.00
2023-03-24T14:13:36.745Z,18.20
2023-03-24T14:16:42.683Z,18.80
2023-03-24T14:19:23.068Z,19.80
2023-03-24T14:22:14.606Z,20.10
2023-03-24T14:24:44.625Z,20.00
2023-03-24T14:27:36.197Z,19.40
2023-03-24T14:30:14.242Z,18.50
2023-03-24T14:32:47.139Z,18.00
2023-03-24T14:35:28.124Z,17.60
2023-03-24T14:37:59.960Z,17.10
2023-03-24T14:40:32.131Z,16.80
2023-03-24T14:43:17.321Z,16.60
2023-03-24T14:46:06.875Z,16.30
2023-03-24T14:48:41.380Z,16.00
2023-03-24T14:51:36.366Z,15.90
2023-03-24T14:54:07.643Z,15.90
2023-03-24T14:56:40.491Z,16.10
2023-03-24T14:59:17.782Z,16.10
2023-03-24T15:01:49.619Z,16.20
2023-03-24T15:04:19.023Z,16.20
2023-03-24T15:06:48.525Z,16.50
2023-03-24T15:09:17.621Z,16.60
2023-03-24T15:11:47.876Z,16.60
2023-03-24T15:14:22.802Z,16.60
2023-03-24T15:16:56.940Z,16.30
2023-03-24T15:19:28.691Z,16.50
2023-03-24T15:22:02.054Z,16.70
2023-03-24T15:24:34.188Z,16.80
2023-03-24T15:27:27.293Z,17.00
2023-03-24T15:29:59.144Z,17.00
2023-03-24T15:32:31.544Z,16.70
2023-03-24T15:35:05.608Z,16.50
2023-03-24T15:37:38.568Z,16.10
2023-03-24T15:40:30.523Z,15.70
2023-03-24T15:43:00.813Z,15.50
2023-03-24T15:45:31.357Z,15.30
2023-03-24T15:48:04.137Z,15.10
2023-03-24T15:50:37.427Z,14.90
2023-03-24T15:53:07.709Z,14.00
2023-03-24T15:55:37.597Z,13.10
2023-03-24T15:58:22.778Z,12.30
2023-03-24T16:00:55.709Z,11.70
2023-03-24T16:03:26.895Z,11.30
2023-03-24T16:05:57.858Z,11.00
2023-03-24T16:08:29.066Z,10.80
2023-03-24T16:10:59.770Z,10.70
2023-03-24T16:13:28.585Z,10.70
2023-03-24T16:15:59.252Z,10.80
2023-03-24T16:18:33.237Z,11.00
2023-03-24T16:21:03.496Z,11.20
2023-03-24T16:23:32.261Z,11.40
2023-03-24T16:26:00.318Z,11.40
2023-03-24T16:28:28.514Z,11.40
2023-03-24T16:31:02.143Z,11.30
2023-03-24T16:33:31.417Z,11.20
2023-03-24T16:35:59.905Z,11.00
2023-03-24T16:38:29.584Z,11.00
2023-03-24T16:40:58.775Z,11.10
2023-03-24T16:43:27.829Z,11.20
2023-03-24T16:45:56.167Z,11.20
2023-03-24T16:48:24.666Z,11.30
2023-03-24T16:50:53.778Z,11.30
2023-03-24T16:53:22.171Z,11.30
2023-03-24T16:55:51.629Z,11.10
2023-03-24T16:58:19.729Z,11.00
2023-03-24T17:00:49.250Z,10.70
2023-03-24T17:03:18.093Z,10.60
2023-03-24T17:05:48.489Z,10.40
2023-03-24T17:08:18.608Z,10.30
2023-03-24T17:10:49.727Z,10.30
2023-03-24T17:13:22.478Z,10.20
2023-03-24T17:15:51.601Z,10.20
2023-03-24T17:18:20.584Z,10.10
2023-03-24T17:20:48.974Z,10.10
2023-03-24T17:23:18.936Z,10.00
2023-03-24T17:25:47.374Z,10.00
2023-03-24T17:28:16.946Z,9.90
2023-03-24T17:30:47.186Z,9.90
2023-03-24T17:33:16.440Z,9.90
2023-03-24T17:35:46.638Z,10.00
2023-03-24T17:38:16.658Z,10.00
2023-03-24T17:40:46.511Z,10.00
2023-03-24T17:43:14.895Z,10.00
2023-03-24T17:45:43.260Z,10.00
2023-03-24T17:48:12.783Z,10.00
2023-03-24T17:50:42.126Z,10.00
2023-03-24T17:53:13.644Z,10.10
2023-03-24T17:55:41.886Z,10.10
2023-03-24T17:58:10.259Z,10.10
2023-03-24T18:00:38.494Z,10.00
2023-03-24T18:03:06.862Z,9.90
2023-03-24T18:05:36.739Z,9.80
2023-03-24T18:08:05.946Z,9.60
2023-03-24T18:10:36.181Z,9.50
2023-03-24T18:13:04.891Z,9.50
2023-03-24T18:15:34.473Z,9.50
2023-03-24T18:18:03.097Z,9.40
2023-03-24T18:20:32.048Z,9.30
2023-03-24T18:23:01.697Z,9.30
2023-03-24T18:25:30.392Z,9.30
2023-03-24T18:28:01.665Z,9.20
2023-03-24T18:30:30.923Z,9.20
2023-03-24T18:33:01.413Z,9.20
2023-03-24T18:35:30.248Z,9.10
2023-03-24T18:37:58.608Z,9.10
2023-03-24T18:40:28.207Z,9.10
2023-03-24T18:42:56.460Z,9.00
2023-03-24T18:45:24.953Z,8.90
2023-03-24T18:47:53.044Z,8.90
2023-03-24T18:50:21.131Z,8.90
2023-03-24T18:52:49.577Z,8.80
2023-03-24T18:55:18.691Z,8.70
2023-03-24T18:57:48.187Z,8.70
2023-03-24T19:00:16.865Z,8.70
2023-03-24T19:02:45.092Z,8.70
2023-03-24T19:05:14.276Z,8.70
2023-03-24T19:07:42.469Z,8.60
2023-03-24T19:10:11.226Z,8.70
2023-03-24T19:12:39.680Z,8.70
2023-03-24T19:15:10.954Z,8.70
2023-03-24T19:17:43.114Z,8.70
2023-03-24T19:20:13.657Z,8.70
2023-03-24T19:22:42.311Z,8.70
2023-03-24T19:25:10.797Z,8.70
2023-03-24T19:27:39.082Z,8.70
2023-03-24T19:30:10.483Z,8.70
2023-03-24T19:32:39.210Z,8.70
2023-03-24T19:35:09.667Z,8.70
2023-03-24T19:37:38.182Z,8.70
2023-03-24T19:40:11.969Z,8.60
2023-03-24T19:42:41.951Z,8.60
2023-03-24T19:45:14.098Z,8.60
2023-03-24T19:47:43.574Z,8.60
2023-03-24T19:50:12.933Z,8.60
2023-03-24T19:52:43.170Z,8.70
2023-03-24T19:55:12.056Z,8.60
2023-03-24T19:57:40.333Z,8.60
2023-03-24T20:00:14.350Z,8.60
2023-03-24T20:02:43.254Z,8.60
2023-03-24T20:05:11.926Z,8.50
2023-03-24T20:07:40.084Z,8.50
2023-03-24T20:10:09.480Z,8.50
2023-03-24T20:12:37.693Z,8.50
2023-03-24T20:15:06.367Z,8.50
2023-03-24T20:17:37.659Z,8.80
2023-03-24T20:20:07.342Z,8.50
2023-03-24T20:22:35.731Z,8.50
2023-03-24T20:25:04.853Z,8.60
2023-03-24T20:27:33.164Z,8.60
2023-03-24T20:30:01.816Z,8.60
2023-03-24T20:32:30.123Z,8.50
2023-03-24T20:34:59.995Z,8.50
2023-03-24T20:37:30.657Z,8.50
2023-03-24T20:39:59.339Z,8.50
2023-03-24T20:42:27.860Z,8.50
2023-03-24T20:44:56.131Z,8.60
2023-03-24T20:47:24.932Z,8.70
2023-03-24T20:49:53.650Z,8.70
2023-03-24T20:52:24.468Z,8.60
2023-03-24T20:54:54.182Z,8.60
2023-03-24T20:57:22.352Z,8.50
2023-03-24T20:59:51.345Z,8.50
2023-03-24T21:02:20.417Z,8.60
2023-03-24T21:04:48.750Z,8.70
2023-03-24T21:07:17.219Z,8.80
2023-03-24T21:09:46.826Z,8.80
2023-03-24T21:12:15.128Z,8.90
2023-03-24T21:14:46.800Z,8.80
2023-03-24T21:17:15.960Z,8.90
2023-03-24T21:19:47.036Z,8.80
2023-03-24T21:22:16.046Z,8.90
2023-03-24T21:24:44.372Z,8.90
2023-03-24T21:27:14.250Z,9.00
2023-03-24T21:29:42.683Z,9.00
2023-03-24T21:32:11.350Z,9.10
2023-03-24T21:34:39.493Z,9.20
2023-03-24T21:37:12.768Z,9.30
2023-03-24T21:39:41.151Z,9.30
2023-03-24T21:42:09.373Z,9.40
2023-03-24T21:44:39.767Z,9.40
2023-03-24T21:47:07.908Z,9.40
2023-03-24T21:49:36.418Z,9.60
2023-03-24T21:52:05.583Z,9.40
2023-03-24T21:54:34.430Z,9.50
2023-03-24T21:57:04.185Z,9.50
2023-03-24T21:59:33.005Z,9.60
2023-03-24T22:02:02.735Z,9.60
2023-03-24T22:04:31.939Z,9.60
2023-03-24T22:07:06.451Z,9.60
2023-03-24T22:09:35.541Z,9.60
2023-03-24T22:12:04.544Z,9.60
2023-03-24T22:14:32.981Z,9.60
2023-03-24T22:17:02.554Z,9.60
2023-03-24T22:19:31.285Z,9.60
2023-03-24T22:22:02.127Z,9.50
2023-03-24T22:24:31.000Z,9.50
2023-03-24T22:26:59.542Z,9.50
2023-03-24T22:29:28.936Z,9.60
2023-03-24T22:31:57.261Z,9.60
2023-03-24T22:34:27.326Z,9.70
2023-03-24T22:36:55.667Z,9.70
2023-03-24T22:39:24.408Z,9.70
2023-03-24T22:41:53.055Z,9.70
2023-03-24T22:44:21.179Z,9.70
2023-03-24T22:46:49.920Z,9.70
2023-03-24T22:49:18.439Z,9.70
2023-03-24T22:51:48.651Z,9.60
2023-03-24T22:54:16.882Z,9.60
2023-03-24T22:56:45.722Z,9.60
2023-03-24T22:59:14.774Z,9.70
2023-03-24T23:01:43.116Z,9.80
2023-03-24T23:04:11.553Z,9.70
2023-03-24T23:06:40.148Z,9.70
2023-03-24T23:09:09.773Z,9.60
2023-03-24T23:11:38.081Z,9.60
2023-03-24T23:14:06.755Z,9.60
2023-03-24T23:16:37.737Z,9.60
2023-03-24T23:19:07.452Z,9.60
2023-03-24T23:21:36.294Z,9.50
2023-03-24T23:24:05.292Z,9.40
2023-03-24T23:26:35.191Z,9.30
2023-03-24T23:29:03.522Z,9.30
2023-03-24T23:31:31.906Z,9.20
2023-03-24T23:34:00.977Z,9.10
2023-03-24T23:36:29.645Z,9.10
2023-03-24T23:38:58.289Z,9.10
2023-03-24T23:41:26.512Z,9.00
2023-03-24T23:43:56.326Z,9.00
2023-03-24T23:46:24.973Z,8.90
2023-03-24T23:48:53.926Z,9.00
2023-03-24T23:51:22.570Z,8.90
2023-03-24T23:53:51.052Z,8.80
2023-03-24T23:56:21.822Z,8.80
2023-03-24T23:58:50.762Z,8.80
